Time;durP1;ratioP1;P1;durP2;ratioP2;P2;SDS_P1;SDS_P2;PMS_P1;PMS_P2;Temp;Humidity;BMP_temperature;BMP_pressure;BME280_temperature;BME280_humidity;BME280_pressure;Samples;Min_cycle;Max_cycle;Signal;HPM_P1;HPM_P2
2023/04/02 00:05:24;;;;;;;863.90;790.03;;;;;;;22.32;nan;99298.34;20498192;28;20039;-75
2023/04/02 00:15:25;;;;;;;882.35;807.40;;;;;;;22.31;nan;99296.69;20520956;28;20051;-75
2023/04/02 00:25:27;;;;;;;858.45;785.05;;;;;;;22.28;nan;99305.75;20523953;28;20049;-74
2023/04/02 00:35:29;;;;;;;916.47;839.40;;;;;;;22.28;nan;99284.66;20514957;28;20383;-75
2023/04/02 00:45:34;;;;;;;948.53;869.50;;;;;;;22.27;nan;99306.72;20526897;28;20039;-75
2023/04/02 00:55:38;;;;;;;868.25;794.25;;;;;;;22.23;nan;99297.47;20521496;28;20089;-75
2023/04/02 01:05:44;;;;;;;816.53;746.05;;;;;;;22.24;nan;99307.03;20519503;28;20045;-77
2023/04/02 01:16:19;;;;;;;825.17;754.10;;;;;;;22.23;nan;99300.09;20515241;28;20520;-75
2023/04/02 01:27:03;;;;;;;805.05;735.35;;;;;;;22.21;nan;99308.16;20521629;28;20446;-78
2023/04/02 01:37:10;;;;;;;979.78;899.42;;;;;;;22.21;nan;99308.16;20489428;28;20074;-74
2023/04/02 01:47:13;;;;;;;831.25;759.78;;;;;;;22.20;nan;99317.06;20519500;28;20130;-75
2023/04/02 01:57:15;;;;;;;829.20;757.72;;;;;;;22.19;nan;99328.59;20519815;28;20073;-75
2023/04/02 02:07:19;;;;;;;735.45;670.53;;;;;;;22.18;nan;99334.84;20506022;28;20750;-75
2023/04/02 02:17:29;;;;;;;742.75;677.45;;;;;;;22.16;nan;99336.78;20513531;28;20431;-75
2023/04/02 02:27:54;;;;;;;751.55;685.67;;;;;;;22.16;nan;99334.16;20517066;28;20141;-75
2023/04/02 02:38:10;;;;;;;794.03;725.00;;;;;;;22.14;nan;99343.19;20497265;28;20138;-75
2023/04/02 02:48:36;;;;;;;850.60;777.90;;;;;;;22.11;nan;99336.41;20517222;28;20038;-75
2023/04/02 02:58:42;;;;;;;967.85;888.03;;;;;;;22.10;nan;99340.03;20495526;28;20035;-76
2023/04/02 03:08:55;;;;;;;998.28;916.83;;;;;;;22.08;nan;99344.59;20519535;28;20058;-74
2023/04/02 03:19:26;;;;;;;920.50;843.30;;;;;;;22.06;nan;99350.03;20526071;28;20806;-74
2023/04/02 03:29:32;;;;;;;998.60;917.22;;;;;;;22.09;nan;99350.72;20510254;28;20057;-74
2023/04/02 03:39:39;;;;;;;970.40;890.53;;;;;;;22.04;nan;99349.34;20512667;28;20078;-75
2023/04/02 03:50:06;;;;;;;922.53;845.28;;;;;;;22.02;nan;99348.69;20520441;28;20076;-75
2023/04/02 04:00:13;;;;;;;940.53;862.38;;;;;;;22.02;nan;99358.38;20516636;28;20059;-76
2023/04/02 04:10:18;;;;;;;979.72;899.42;;;;;;;22.03;nan;99365.31;20518980;28;20051;-74
2023/04/02 04:20:32;;;;;;;942.85;864.58;;;;;;;22.06;nan;99375.59;20520611;28;20058;-74
2023/04/02 04:31:16;;;;;;;842.35;770.05;;;;;;;22.08;nan;99384.16;20513779;28;20085;-75
2023/04/02 04:41:25;;;;;;;998.78;917.22;;;;;;;22.10;nan;99392.75;20500270;28;20047;-74
2023/04/02 04:51:38;;;;;;;1002.30;920.67;;;;;;;22.11;nan;99388.31;20525983;28;20409;-75
2023/04/02 05:01:44;;;;;;;;;;;;;;;22.15;nan;99389.66;20521870;28;20043;-73
2023/04/02 05:12:13;;;;;;;1066.30;981.13;;;;;;;22.18;nan;99389.34;20523196;28;20422;-73
2023/04/02 05:22:30;;;;;;;868.10;793.83;;;;;;;22.20;nan;99398.81;20501529;28;20042;-73
2023/04/02 05:32:39;;;;;;;852.55;779.33;;;;;;;22.23;nan;99402.94;20510609;28;20640;-76
2023/04/02 05:42:44;;;;;;;843.47;770.60;;;;;;;22.29;nan;99414.69;20519590;28;20133;-75
2023/04/02 05:52:51;;;;;;;1131.25;999.90;;;;;;;22.34;nan;99430.91;20532313;28;20126;-77
2023/04/02 06:03:05;;;;;;;1027.18;942.80;;;;;;;22.37;nan;99431.44;20504607;28;20046;-76
2023/04/02 06:13:07;;;;;;;1166.20;999.90;;;;;;;22.44;nan;99428.22;20528700;28;20057;-75
2023/04/02 06:23:31;;;;;;;1047.70;962.20;;;;;;;22.47;nan;99434.03;20537866;28;20046;-76
2023/04/02 06:33:32;;;;;;;1112.78;999.90;;;;;;;22.51;nan;99447.75;20524406;28;20050;-76
2023/04/02 06:43:45;;;;;;;1188.72;999.90;;;;;;;22.53;nan;99459.81;20539624;28;20078;-77
2023/04/02 06:53:48;;;;;;;1198.82;999.90;;;;;;;22.58;nan;99461.97;20500812;28;20054;-77
2023/04/02 07:03:50;;;;;;;1177.18;999.90;;;;;;;22.60;nan;99461.84;20527322;28;20042;-83
2023/04/02 07:13:50;;;;;;;780.77;712.43;;;;;;;22.57;nan;99459.50;20510432;28;20038;-77
2023/04/02 07:23:51;;;;;;;763.10;696.00;;;;;;;22.60;nan;99467.94;20523543;28;20035;-74
2023/04/02 07:33:54;;;;;;;826.13;754.53;;;;;;;22.61;nan;99482.78;20523085;28;20051;-74
2023/04/02 07:43:54;;;;;;;;;;;;;;;22.63;nan;99490.56;20523437;28;20047;-73
2023/04/02 07:53:54;;;;;;;759.45;692.85;;;;;;;22.64;nan;99511.53;20528339;28;19929;-73
2023/04/02 08:03:56;;;;;;;754.50;688.05;;;;;;;22.64;nan;99513.31;20509012;28;20076;-70
2023/04/02 08:13:57;;;;;;;731.40;666.57;;;;;;;22.62;nan;99516.13;20493898;28;20043;-70
2023/04/02 08:23:58;;;;;;;711.65;647.90;;;;;;;22.67;nan;99526.25;20519345;28;20039;-70
2023/04/02 08:34:00;;;;;;;700.97;637.53;;;;;;;22.65;nan;99542.19;20515218;28;20074;-72
2023/04/02 08:44:28;;;;;;;740.80;675.07;;;;;;;22.63;nan;99545.97;20522518;28;20047;-71
2023/04/02 08:54:36;;;;;;;740.17;674.88;;;;;;;22.60;nan;99543.66;20538296;28;20116;-71
2023/04/02 09:04:37;;;;;;;774.58;706.75;;;;;;;22.59;nan;99544.63;20533896;28;20039;-71
2023/04/02 09:14:48;;;;;;;787.90;718.95;;;;;;;22.59;nan;99545.44;20536417;28;20061;-72
2023/04/02 09:25:03;;;;;;;871.88;797.15;;;;;;;22.62;nan;99547.78;20524445;28;20054;-75
2023/04/02 09:35:14;;;;;;;905.88;828.72;;;;;;;22.65;nan;99559.84;20510770;28;20039;-72
2023/04/02 09:45:20;;;;;;;1158.75;999.90;;;;;;;22.67;nan;99577.19;20515218;28;20047;-70
2023/04/02 09:55:27;;;;;;;574.85;521.28;;;;;;;22.69;nan;99572.59;20505418;28;20090;-70
2023/04/02 10:05:29;;;;;;;528.00;477.73;;;;;;;22.69;nan;99580.53;20506629;28;20071;-73
2023/04/02 10:15:45;;;;;;;567.10;514.00;;;;;;;22.72;nan;99576.75;20515797;28;20050;-71
2023/04/02 10:26:00;;;;;;;516.60;467.05;;;;;;;22.72;nan;99571.47;20506266;28;20040;-70
2023/04/02 10:36:31;;;;;;;586.35;531.88;;;;;;;22.74;nan;99572.16;20516409;28;20077;-72
2023/04/02 10:46:59;;;;;;;404.23;363.90;;;;;;;22.73;nan;99562.59;20503838;28;20128;-68
2023/04/02 10:57:24;;;;;;;444.90;400.70;;;;;;;22.74;nan;99568.69;20502981;28;20062;-68
2023/04/02 11:07:29;;;;;;;479.25;432.45;;;;;;;22.75;nan;99568.53;20505635;28;20043;-67
2023/04/02 11:17:30;;;;;;;450.05;405.92;;;;;;;22.79;nan;99550.56;20499381;28;20053;-67
2023/04/02 11:27:33;;;;;;;405.67;364.60;;;;;;;22.96;nan;99552.41;20507291;28;20503;-69
2023/04/02 11:37:33;;;;;;;532.85;483.40;;;;;;;23.08;nan;99542.44;20494441;28;20059;-71
2023/04/02 11:48:19;;;;;;;565.38;512.97;;;;;;;23.10;nan;99542.31;20515153;28;20059;-73
2023/04/02 11:58:23;;;;;;;369.33;332.23;;;;;;;23.09;nan;99532.72;20545820;28;20055;-70
2023/04/02 12:09:03;;;;;;;507.42;458.55;;;;;;;23.04;nan;99527.88;20496868;28;20097;-69
2023/04/02 12:19:07;;;;;;;342.27;308.13;;;;;;;23.20;nan;99524.56;20463075;28;20042;-71
2023/04/02 12:29:27;;;;;;;514.85;465.17;;;;;;;23.33;nan;99517.09;20505952;28;20130;-69
2023/04/02 12:39:32;;;;;;;472.08;425.42;;;;;;;23.45;nan;99503.66;20508363;28;20048;-70
2023/04/02 12:49:42;;;;;;;485.58;437.83;;;;;;;23.52;nan;99502.00;20512361;28;20156;-70
2023/04/02 12:59:42;;;;;;;519.03;468.90;;;;;;;23.56;nan;99508.66;20514242;28;20039;-72
2023/04/02 13:09:51;;;;;;;396.42;356.02;;;;;;;23.65;nan;99505.06;20550217;28;20045;-72
2023/04/02 13:19:54;;;;;;;475.83;428.92;;;;;;;23.54;nan;99505.34;20550529;28;20038;-71
2023/04/02 13:29:56;;;;;;;461.42;415.45;;;;;;;23.67;nan;99510.22;20552970;28;20046;-71
2023/04/02 13:39:57;;;;;;;455.35;409.60;;;;;;;23.78;nan;99522.34;20550247;28;20052;-71
2023/04/02 13:49:57;;;;;;;498.35;449.38;;;;;;;23.82;nan;99513.91;20541433;28;20046;-72
2023/04/02 13:59:58;;;;;;;450.90;406.05;;;;;;;23.19;nan;99504.44;20527745;28;20629;-72
2023/04/02 14:10:19;;;;;;;439.13;394.67;;;;;;;23.49;nan;99500.50;20531378;28;20051;-72
2023/04/02 14:20:44;;;;;;;460.80;414.87;;;;;;;23.60;nan;99509.19;20536987;28;20054;-73
2023/04/02 14:31:11;;;;;;;401.30;360.27;;;;;;;23.67;nan;99512.84;20540477;28;20097;-72
2023/04/02 14:41:38;;;;;;;434.48;390.60;;;;;;;23.65;nan;99544.69;20514687;28;20086;-70
2023/04/02 14:51:42;;;;;;;449.65;404.42;;;;;;;23.74;nan;99569.41;20504120;28;20054;-71
2023/04/02 15:01:48;;;;;;;407.63;365.65;;;;;;;23.82;nan;99587.13;20506740;28;20038;-72
2023/04/02 15:12:19;;;;;;;464.40;418.00;;;;;;;23.72;nan;99607.53;20516533;28;20499;-74
2023/04/02 15:22:32;;;;;;;420.65;377.92;;;;;;;23.62;nan;99634.88;20511507;28;20039;-72
2023/04/02 15:32:32;;;;;;;396.60;356.65;;;;;;;23.52;nan;99643.88;20511848;28;20085;-75
2023/04/02 15:42:40;;;;;;;414.40;372.60;;;;;;;23.43;nan;99645.63;20509974;28;20125;-76
2023/04/02 15:52:50;;;;;;;548.30;496.17;;;;;;;23.37;nan;99635.66;20505122;28;20191;-72
2023/04/02 16:03:04;;;;;;;531.17;480.27;;;;;;;23.36;nan;99642.75;20506673;28;20047;-71
2023/04/02 16:13:36;;;;;;;493.73;445.45;;;;;;;23.33;nan;99628.03;20505313;28;20098;-71
2023/04/02 16:23:40;;;;;;;508.33;458.90;;;;;;;23.54;nan;99629.53;20490573;28;20493;-70
2023/04/02 16:33:59;;;;;;;495.10;446.55;;;;;;;23.57;nan;99662.75;20497330;28;20051;-71
2023/04/02 16:44:05;;;;;;;520.55;470.40;;;;;;;23.60;nan;99681.78;20510003;28;20130;-70
2023/04/02 16:54:27;;;;;;;507.17;458.00;;;;;;;23.49;nan;99679.38;20540098;28;20050;-72
2023/04/02 17:04:45;;;;;;;528.22;477.35;;;;;;;23.38;nan;99698.91;20523622;28;20058;-70
2023/04/02 17:14:56;;;;;;;404.17;363.75;;;;;;;23.25;nan;99706.38;20524525;28;20166;-70
2023/04/02 17:25:01;;;;;;;476.00;429.30;;;;;;;23.10;nan;99722.69;20511934;28;20125;-70
2023/04/02 17:35:17;;;;;;;430.38;387.55;;;;;;;23.05;nan;99737.31;20523313;28;20676;-71
2023/04/02 17:45:39;;;;;;;389.75;351.10;;;;;;;22.97;nan;99741.53;20515210;28;20051;-71
2023/04/02 17:55:56;;;;;;;347.07;313.37;;;;;;;22.89;nan;99759.91;20534438;28;20051;-70
2023/04/02 18:06:17;;;;;;;318.80;288.02;;;;;;;22.80;nan;99788.00;20519815;28;20101;-72
2023/04/02 18:16:42;;;;;;;293.70;264.77;;;;;;;22.81;nan;99797.59;20522211;28;20050;-72
2023/04/02 18:27:05;;;;;;;309.38;279.05;;;;;;;22.81;nan;99823.13;20555329;28;20713;-73
2023/04/02 18:37:22;;;;;;;247.57;223.73;;;;;;;22.79;nan;99833.00;20541604;28;20476;-71
2023/04/02 18:47:44;;;;;;;246.43;222.80;;;;;;;22.75;nan;99850.09;20524775;28;20043;-70
2023/04/02 18:58:02;;;;;;;225.77;204.32;;;;;;;22.70;nan;99863.72;20522708;28;20071;-72
2023/04/02 19:08:30;;;;;;;254.35;229.98;;;;;;;22.66;nan;99880.81;20548288;28;20054;-71
2023/04/02 19:19:05;;;;;;;261.60;236.35;;;;;;;22.63;nan;99894.28;20535395;28;20054;-72
2023/04/02 19:29:51;;;;;;;324.98;293.23;;;;;;;22.60;nan;99911.22;20555782;28;20046;-72
2023/04/02 19:39:57;;;;;;;315.67;285.08;;;;;;;22.60;nan;99923.59;20552980;28;20073;-73
2023/04/02 19:49:58;;;;;;;272.20;245.98;;;;;;;22.59;nan;99943.88;20546411;28;20059;-72
2023/04/02 19:59:59;;;;;;;244.55;221.32;;;;;;;22.56;nan;99965.28;20550840;28;20043;-73
2023/04/02 20:10:00;;;;;;;319.90;288.75;;;;;;;22.55;nan;99972.34;20545172;28;20130;-73
2023/04/02 20:20:01;;;;;;;316.55;285.90;;;;;;;22.54;nan;99986.53;20540157;28;20039;-71
2023/04/02 20:30:02;;;;;;;303.13;273.92;;;;;;;22.55;nan;100004.00;20542229;28;20055;-74
2023/04/02 20:40:04;;;;;;;284.48;256.95;;;;;;;22.54;nan;100012.91;20530514;28;20050;-71
2023/04/02 20:50:05;;;;;;;268.40;242.77;;;;;;;22.53;nan;100034.13;20535351;28;20043;-73
2023/04/02 21:00:09;;;;;;;293.10;264.80;;;;;;;22.49;nan;100044.13;20537461;28;20045;-72
2023/04/02 21:10:11;;;;;;;233.05;211.05;;;;;;;22.49;nan;100054.69;20529137;28;20522;-73
2023/04/02 21:20:12;;;;;;;312.48;282.33;;;;;;;22.46;nan;100072.56;20536198;28;20045;-72
2023/04/02 21:30:14;;;;;;;278.73;251.98;;;;;;;22.44;nan;100077.19;20534422;28;20078;-73
2023/04/02 21:40:15;;;;;;;287.35;259.75;;;;;;;22.43;nan;100088.69;20550244;28;20055;-73
2023/04/02 21:50:15;;;;;;;243.95;220.65;;;;;;;22.40;nan;100097.72;20556156;28;20085;-73
2023/04/02 22:00:16;;;;;;;280.20;253.35;;;;;;;22.40;nan;100113.53;20556399;28;20098;-74
2023/04/02 22:10:17;;;;;;;249.32;225.63;;;;;;;22.41;nan;100122.28;20555798;28;20071;-70
2023/04/02 22:20:23;;;;;;;274.58;248.10;;;;;;;22.39;nan;100127.69;20546648;28;20983;-70
2023/04/02 22:30:28;;;;;;;274.23;248.00;;;;;;;22.37;nan;100133.09;20550972;28;20043;-72
2023/04/02 22:40:30;;;;;;;313.58;283.30;;;;;;;22.35;nan;100148.19;20558342;28;20058;-71
2023/04/02 22:50:31;;;;;;;320.00;288.95;;;;;;;22.32;nan;100148.44;20546844;28;20047;-70
2023/04/02 23:00:33;;;;;;;248.47;224.97;;;;;;;22.31;nan;100161.78;20541766;28;20047;-72
2023/04/02 23:10:34;;;;;;;258.47;234.07;;;;;;;22.33;nan;100171.22;20533293;28;20074;-70
2023/04/02 23:20:39;;;;;;;228.07;206.88;;;;;;;22.33;nan;100184.41;20534329;28;20047;-72
2023/04/02 23:30:42;;;;;;;229.35;207.90;;;;;;;22.32;nan;100179.28;20535690;28;20284;-72
2023/04/02 23:40:42;;;;;;;212.80;193.05;;;;;;;22.30;nan;100184.69;20526747;28;20058;-71
2023/04/02 23:50:44;;;;;;;259.08;234.52;;;;;;;22.27;nan;100192.84;20532758;28;20410;-71
